Time;durP1;ratioP1;P1;durP2;ratioP2;P2;SDS_P1;SDS_P2;PMS_P1;PMS_P2;Temp;Humidity;BMP_temperature;BMP_pressure;BME280_temperature;BME280_humidity;BME280_pressure;Samples;Min_cycle;Max_cycle;Signal;HPM_P1;HPM_P2
2023/06/04 00:02:05;;;;;;;17.38;15.63;;;21.10;97.00;;;;;;4963447;28;20035;-48
2023/06/04 00:04:31;;;;;;;17.87;16.07;;;21.10;96.80;;;;;;4962124;28;20042;-48
2023/06/04 00:06:56;;;;;;;18.00;16.20;;;21.10;96.80;;;;;;4960054;28;20027;-47
2023/06/04 00:09:22;;;;;;;19.03;17.00;;;21.00;97.10;;;;;;4961289;28;20058;-49
2023/06/04 00:11:48;;;;;;;19.65;16.38;;;21.00;97.70;;;;;;4956709;28;20431;-47
2023/06/04 00:14:17;;;;;;;19.67;17.75;;;20.90;97.80;;;;;;4966634;28;20035;-47
2023/06/04 00:16:43;;;;;;;18.65;16.75;;;20.90;98.00;;;;;;4963774;28;20417;-48
2023/06/04 00:19:09;;;;;;;19.38;17.42;;;20.90;98.10;;;;;;4962622;28;20019;-48
2023/06/04 00:21:35;;;;;;;21.30;17.20;;;20.90;98.00;;;;;;4966793;28;20065;-47
2023/06/04 00:24:01;;;;;;;18.47;16.57;;;20.90;98.10;;;;;;4965851;28;20042;-49
2023/06/04 00:26:27;;;;;;;18.00;16.25;;;20.90;97.90;;;;;;4964050;28;20518;-48
2023/06/04 00:28:56;;;;;;;20.23;16.90;;;20.90;98.10;;;;;;4957578;28;20035;-47
2023/06/04 00:31:22;;;;;;;18.38;16.48;;;20.80;98.50;;;;;;4971002;28;20065;-49
2023/06/04 00:33:48;;;;;;;18.40;16.50;;;20.80;98.60;;;;;;4956683;28;20066;-49
2023/06/04 00:36:14;;;;;;;18.90;16.87;;;20.80;98.50;;;;;;4986087;28;20439;-47
2023/06/04 00:38:40;;;;;;;18.73;16.73;;;20.80;98.40;;;;;;4969727;28;20034;-47
2023/06/04 00:41:05;;;;;;;20.85;18.77;;;20.80;98.40;;;;;;4987620;28;20070;-47
2023/06/04 00:43:32;;;;;;;19.52;17.55;;;20.70;98.30;;;;;;4972664;28;20547;-47
2023/06/04 00:45:58;;;;;;;21.20;17.15;;;20.80;98.40;;;;;;4952261;28;20031;-49
2023/06/04 00:48:27;;;;;;;19.42;17.52;;;20.80;98.10;;;;;;4967916;28;20039;-49
2023/06/04 00:50:54;;;;;;;21.00;18.77;;;20.80;98.10;;;;;;4968333;28;20063;-48
2023/06/04 00:53:22;;;;;;;21.42;19.23;;;20.80;98.30;;;;;;4967468;28;20027;-48
2023/06/04 00:55:48;;;;;;;19.23;17.20;;;20.80;98.30;;;;;;4972331;28;20030;-47
2023/06/04 00:58:15;;;;;;;20.27;18.27;;;20.70;98.40;;;;;;4966246;28;20029;-47
2023/06/04 01:00:42;;;;;;;21.10;19.13;;;20.70;98.50;;;;;;4974439;28;20034;-48
2023/06/04 01:03:19;;;;;;;20.58;18.50;;;20.70;98.40;;;;;;4961879;28;20117;-50
2023/06/04 01:05:59;;;;;;;23.80;18.90;;;20.70;97.10;;;;;;4959737;28;20513;-47
2023/06/04 01:08:27;;;;;;;22.33;19.98;;;20.70;97.30;;;;;;4969717;28;20484;-47
2023/06/04 01:10:56;;;;;;;20.67;18.45;;;20.70;97.80;;;;;;4967563;28;20022;-49
2023/06/04 01:13:22;;;;;;;23.92;19.92;;;20.70;97.70;;;;;;4974567;28;20051;-47
2023/06/04 01:15:48;;;;;;;22.80;20.33;;;20.70;98.60;;;;;;4972872;28;20027;-47
2023/06/04 01:18:27;;;;;;;22.38;19.80;;;20.60;98.30;;;;;;4987384;28;20027;-47
2023/06/04 01:21:07;;;;;;;23.00;20.50;;;20.60;98.20;;;;;;4963031;28;20102;-47
2023/06/04 01:23:46;;;;;;;24.45;21.42;;;20.50;97.80;;;;;;4971061;28;20070;-50
2023/06/04 01:26:13;;;;;;;23.95;21.13;;;20.50;98.80;;;;;;4965361;28;20062;-48
2023/06/04 01:28:39;;;;;;;27.55;24.60;;;20.50;98.90;;;;;;4987072;28;20027;-47
2023/06/04 01:31:08;;;;;;;24.25;21.70;;;20.40;98.70;;;;;;4967864;28;20034;-49
2023/06/04 01:33:35;;;;;;;24.30;21.80;;;20.30;99.10;;;;;;4958376;28;20023;-48
2023/06/04 01:36:02;;;;;;;24.55;21.95;;;20.30;99.00;;;;;;4966707;28;20027;-47
2023/06/04 01:38:28;;;;;;;25.08;22.48;;;20.30;99.10;;;;;;4961893;28;20026;-48
2023/06/04 01:41:00;;;;;;;27.33;22.23;;;20.30;99.50;;;;;;4989041;28;20440;-49
2023/06/04 01:43:27;;;;;;;25.00;22.40;;;20.20;99.50;;;;;;4960837;28;20024;-47
2023/06/04 01:45:54;;;;;;;25.83;22.00;;;20.10;99.90;;;;;;4970553;28;20031;-48
2023/06/04 01:48:20;;;;;;;30.05;24.00;;;20.10;99.90;;;;;;4970108;28;20030;-47
2023/06/04 01:50:46;;;;;;;27.98;25.08;;;20.00;99.90;;;;;;4986854;28;20035;-47
2023/06/04 01:53:12;;;;;;;24.77;22.10;;;20.00;99.90;;;;;;4968054;28;20103;-48
2023/06/04 01:55:38;;;;;;;26.60;23.90;;;20.00;99.90;;;;;;4959276;28;20034;-48
2023/06/04 01:58:03;;;;;;;25.45;22.95;;;20.00;99.90;;;;;;4963979;28;20023;-47
2023/06/04 02:00:29;;;;;;;24.90;22.30;;;19.90;99.90;;;;;;4973471;28;20030;-49
2023/06/04 02:02:55;;;;;;;27.10;23.13;;;19.90;99.90;;;;;;4965986;28;20027;-48
2023/06/04 02:05:22;;;;;;;25.85;23.05;;;20.00;99.90;;;;;;4951656;28;20567;-47
2023/06/04 02:07:48;;;;;;;25.70;23.02;;;19.90;99.90;;;;;;4971851;28;20034;-49
2023/06/04 02:10:16;;;;;;;26.90;24.00;;;19.90;99.90;;;;;;4956849;28;20023;-48
2023/06/04 02:12:53;;;;;;;25.85;23.05;;;19.90;99.90;;;;;;4963016;28;20038;-46
2023/06/04 02:15:19;;;;;;;26.83;23.95;;;19.90;99.90;;;;;;4988368;28;20452;-49
2023/06/04 02:17:45;;;;;;;26.05;23.35;;;19.90;99.90;;;;;;4958500;28;20033;-48
2023/06/04 02:20:11;;;;;;;26.40;23.60;;;19.90;99.90;;;;;;4957215;28;20022;-49
2023/06/04 02:22:38;;;;;;;25.27;22.73;;;19.80;99.90;;;;;;4965704;28;20078;-47
2023/06/04 02:25:05;;;;;;;27.27;24.17;;;19.80;99.90;;;;;;4964400;28;20118;-47
2023/06/04 02:27:30;;;;;;;;;;;19.80;99.90;;;;;;4963994;28;20496;-48
2023/06/04 02:29:56;;;;;;;27.15;24.27;;;19.80;99.90;;;;;;4958303;28;19917;-48
2023/06/04 02:32:22;;;;;;;29.70;26.50;;;19.70;99.90;;;;;;4972897;28;20031;-49
2023/06/04 02:34:48;;;;;;;26.80;23.98;;;19.70;99.90;;;;;;4964866;28;20085;-47
2023/06/04 02:37:14;;;;;;;30.45;26.60;;;19.60;99.90;;;;;;4971874;28;20436;-50
2023/06/04 02:39:40;;;;;;;27.27;24.35;;;19.60;99.90;;;;;;4974529;28;20606;-48
2023/06/04 02:42:07;;;;;;;27.50;24.55;;;19.60;99.90;;;;;;4974671;28;20079;-47
2023/06/04 02:44:33;;;;;;;28.17;25.42;;;19.60;99.90;;;;;;4973169;28;20061;-48
2023/06/04 02:46:58;;;;;;;26.77;23.98;;;19.60;99.90;;;;;;4956384;28;20435;-50
2023/06/04 02:49:24;;;;;;;28.83;25.75;;;19.50;99.90;;;;;;5003751;23;20047;-58
2023/06/04 02:51:50;;;;;;;32.33;27.33;;;19.50;99.90;;;;;;4952537;29;20037;-55
2023/06/04 02:54:17;;;;;;;29.88;26.60;;;19.40;99.90;;;;;;4953381;28;20510;-54
2023/06/04 02:56:43;;;;;;;29.05;26.15;;;19.40;99.90;;;;;;4953292;28;20082;-56
2023/06/04 02:59:11;;;;;;;29.40;26.05;;;19.40;99.90;;;;;;4954525;28;20027;-59
2023/06/04 03:01:37;;;;;;;31.63;27.60;;;19.40;99.90;;;;;;4951253;29;20027;-59
2023/06/04 03:04:04;;;;;;;31.42;27.70;;;19.40;99.90;;;;;;4952859;28;20045;-55
2023/06/04 03:06:32;;;;;;;28.48;25.58;;;19.40;99.90;;;;;;4954347;28;20023;-55
2023/06/04 03:08:58;;;;;;;29.48;26.40;;;19.40;99.90;;;;;;4953099;28;20035;-54
2023/06/04 03:11:24;;;;;;;28.58;25.77;;;19.40;99.90;;;;;;4954478;28;20027;-55
2023/06/04 03:13:52;;;;;;;33.20;27.60;;;19.40;99.90;;;;;;4952699;28;20039;-56
2023/06/04 03:16:18;;;;;;;30.95;27.67;;;19.30;99.90;;;;;;4953189;28;20034;-56
2023/06/04 03:18:44;;;;;;;27.95;24.95;;;19.30;99.90;;;;;;4953885;28;20027;-56
2023/06/04 03:21:13;;;;;;;27.40;24.65;;;19.30;99.90;;;;;;4954232;28;20023;-57
2023/06/04 03:23:40;;;;;;;38.05;25.88;;;19.30;99.90;;;;;;4952798;29;20035;-59
2023/06/04 03:26:06;;;;;;;28.88;25.88;;;19.30;99.90;;;;;;4952533;28;20043;-54
2023/06/04 03:28:33;;;;;;;28.70;25.60;;;19.30;99.90;;;;;;4952738;28;20027;-55
2023/06/04 03:31:02;;;;;;;29.83;26.77;;;19.20;99.90;;;;;;4952447;28;20047;-56
2023/06/04 03:33:28;;;;;;;30.20;27.15;;;19.20;99.90;;;;;;4952449;28;20038;-58
2023/06/04 03:35:57;;;;;;;30.90;26.55;;;19.20;99.90;;;;;;4953498;28;20024;-58
2023/06/04 03:38:23;;;;;;;29.13;26.10;;;19.20;99.90;;;;;;4952068;28;20027;-58
2023/06/04 03:40:49;;;;;;;30.40;24.65;;;19.20;99.90;;;;;;4951937;28;20031;-57
2023/06/04 03:43:15;;;;;;;30.88;26.33;;;19.20;99.90;;;;;;4950436;28;20042;-57
2023/06/04 03:45:42;;;;;;;28.08;25.15;;;19.20;99.90;;;;;;4952386;28;20038;-59
2023/06/04 03:48:09;;;;;;;28.30;25.45;;;19.20;99.90;;;;;;4952182;28;20035;-58
2023/06/04 03:50:36;;;;;;;;;;;19.10;99.90;;;;;;4952690;28;20075;-58
2023/06/04 03:53:04;;;;;;;29.92;25.98;;;19.10;99.30;;;;;;4952296;29;20021;-58
2023/06/04 03:55:32;;;;;;;30.90;27.60;;;19.10;99.90;;;;;;4951925;29;20051;-58
2023/06/04 03:57:59;;;;;;;28.80;25.52;;;19.10;99.90;;;;;;4951943;29;20031;-59
2023/06/04 04:00:25;;;;;;;30.90;25.40;;;19.10;99.90;;;;;;4951165;29;20037;-56
2023/06/04 04:02:56;;;;;;;27.88;24.90;;;19.10;99.90;;;;;;4950576;29;20274;-57
2023/06/04 04:05:26;;;;;;;30.20;25.15;;;19.10;99.90;;;;;;4952200;28;20042;-54
2023/06/04 04:07:52;;;;;;;36.50;28.90;;;19.10;99.90;;;;;;4951950;28;20066;-59
2023/06/04 04:10:23;;;;;;;30.55;27.35;;;19.10;99.90;;;;;;4952526;29;20059;-57
2023/06/04 04:12:50;;;;;;;32.47;26.65;;;19.10;99.90;;;;;;4952355;29;20439;-57
2023/06/04 04:15:18;;;;;;;30.08;26.88;;;18.90;99.90;;;;;;4936859;29;20058;-55
2023/06/04 04:17:44;;;;;;;27.42;24.58;;;18.90;99.90;;;;;;4952428;28;20062;-56
2023/06/04 04:20:11;;;;;;;29.80;26.57;;;18.90;99.90;;;;;;4949920;28;20062;-56
2023/06/04 04:22:41;;;;;;;28.13;25.23;;;18.90;99.90;;;;;;4951849;28;20440;-53
2023/06/04 04:25:09;;;;;;;30.67;26.88;;;19.00;99.90;;;;;;4951815;28;20408;-53
2023/06/04 04:27:38;;;;;;;28.65;25.67;;;19.00;99.90;;;;;;4951364;28;20403;-57
2023/06/04 04:30:07;;;;;;;28.60;25.50;;;19.00;99.90;;;;;;4951262;28;20039;-59
2023/06/04 04:32:34;;;;;;;27.33;24.65;;;19.00;99.90;;;;;;4951875;29;20032;-55
2023/06/04 04:35:00;;;;;;;28.15;25.25;;;19.00;99.90;;;;;;4951873;28;20403;-58
2023/06/04 04:37:32;;;;;;;31.00;26.23;;;19.10;99.90;;;;;;4951607;29;20028;-57
2023/06/04 04:39:58;;;;;;;30.08;27.15;;;19.20;99.90;;;;;;4951548;29;20031;-60
2023/06/04 04:42:27;;;;;;;28.60;25.55;;;19.20;99.90;;;;;;4951890;28;20499;-58
2023/06/04 04:44:53;;;;;;;29.27;25.00;;;19.20;99.90;;;;;;4951840;28;20086;-59
2023/06/04 04:47:22;;;;;;;29.67;26.77;;;19.20;99.90;;;;;;4951877;29;20143;-58
2023/06/04 04:49:49;;;;;;;28.15;25.27;;;19.30;99.90;;;;;;4951640;29;20050;-58
2023/06/04 04:52:15;;;;;;;28.08;25.17;;;19.40;99.90;;;;;;4951249;28;20042;-55
2023/06/04 04:54:42;;;;;;;29.40;26.35;;;19.40;99.90;;;;;;4951350;29;20027;-57
2023/06/04 04:57:08;;;;;;;27.77;24.77;;;19.30;99.90;;;;;;4951593;29;20596;-57
2023/06/04 04:59:35;;;;;;;27.85;23.48;;;19.30;99.90;;;;;;4951334;28;20086;-57
2023/06/04 05:02:02;;;;;;;25.60;23.17;;;19.40;99.90;;;;;;4951511;29;20059;-57
2023/06/04 05:04:28;;;;;;;27.27;24.58;;;19.40;99.90;;;;;;4951413;28;20034;-57
2023/06/04 05:06:55;;;;;;;25.48;23.00;;;19.50;99.90;;;;;;4951414;29;20035;-55
2023/06/04 05:09:21;;;;;;;24.67;22.17;;;19.50;99.90;;;;;;4951266;29;20053;-56
2023/06/04 05:11:48;;;;;;;29.35;24.40;;;19.60;99.90;;;;;;4951546;29;20038;-56
2023/06/04 05:14:14;;;;;;;35.60;28.67;;;19.70;99.90;;;;;;4951391;28;20035;-55
2023/06/04 05:16:41;;;;;;;;;;;19.80;99.90;;;;;;4951907;28;20055;-55
2023/06/04 05:19:10;;;;;;;24.88;22.30;;;19.80;99.90;;;;;;4951050;29;19918;-57
2023/06/04 05:21:37;;;;;;;22.95;20.67;;;19.80;99.90;;;;;;4951503;29;20082;-59
2023/06/04 05:24:05;;;;;;;21.98;19.70;;;19.90;99.90;;;;;;4951476;28;20023;-56
2023/06/04 05:26:35;;;;;;;19.08;17.02;;;19.90;99.90;;;;;;4951296;28;20562;-58
2023/06/04 05:29:07;;;;;;;17.83;15.95;;;20.00;99.90;;;;;;4951291;28;20069;-56
2023/06/04 05:31:39;;;;;;;18.20;16.35;;;20.00;99.90;;;;;;4951506;28;20043;-56
2023/06/04 05:34:07;;;;;;;17.95;16.25;;;20.10;99.90;;;;;;4946975;28;20039;-55
2023/06/04 05:36:36;;;;;;;18.10;16.30;;;20.10;99.90;;;;;;4951234;28;20592;-57
2023/06/04 05:39:04;;;;;;;18.90;16.90;;;20.10;99.90;;;;;;4951804;28;20058;-57
2023/06/04 05:41:37;;;;;;;16.13;14.63;;;20.20;99.90;;;;;;4954935;28;20074;-56
2023/06/04 05:44:04;;;;;;;17.13;15.43;;;20.20;99.90;;;;;;4954229;28;20031;-58
2023/06/04 05:46:30;;;;;;;16.45;14.85;;;20.20;99.90;;;;;;4954533;29;20093;-58
2023/06/04 05:48:56;;;;;;;15.38;13.77;;;20.20;99.90;;;;;;4954213;29;20039;-57
2023/06/04 05:51:23;;;;;;;12.30;11.00;;;20.30;99.90;;;;;;4955897;28;20378;-57
2023/06/04 05:53:49;;;;;;;12.30;11.10;;;20.30;99.90;;;;;;4954664;28;20050;-55
2023/06/04 05:56:16;;;;;;;12.23;11.05;;;20.30;99.90;;;;;;4954320;29;20281;-61
2023/06/04 05:58:42;;;;;;;12.95;11.10;;;20.40;99.90;;;;;;4954099;28;20136;-58
2023/06/04 06:01:09;;;;;;;13.27;10.45;;;20.40;99.90;;;;;;4954508;28;20034;-55
2023/06/04 06:03:36;;;;;;;11.57;10.48;;;20.40;99.90;;;;;;4954348;28;20038;-55
2023/06/04 06:06:02;;;;;;;12.00;10.88;;;20.50;99.90;;;;;;4954253;28;20034;-61
2023/06/04 06:08:28;;;;;;;12.27;10.93;;;20.50;99.90;;;;;;4955484;28;20031;-59
2023/06/04 06:10:55;;;;;;;11.10;9.98;;;20.60;99.90;;;;;;4954199;28;20031;-58
2023/06/04 06:13:21;;;;;;;11.90;9.90;;;20.70;99.90;;;;;;4954137;28;20039;-57
2023/06/04 06:15:52;;;;;;;11.10;10.00;;;20.70;99.90;;;;;;4954107;28;20023;-59
2023/06/04 06:18:18;;;;;;;11.65;10.32;;;20.80;99.90;;;;;;4953651;28;20035;-57
2023/06/04 06:20:44;;;;;;;11.18;10.07;;;20.90;99.90;;;;;;4953715;28;20078;-58
2023/06/04 06:23:10;;;;;;;11.95;10.85;;;21.00;99.90;;;;;;4954059;28;20031;-59
2023/06/04 06:25:40;;;;;;;10.80;9.80;;;21.00;99.90;;;;;;4954092;28;20464;-56
2023/06/04 06:28:12;;;;;;;10.95;9.95;;;21.10;99.90;;;;;;4953609;29;20042;-52
2023/06/04 06:30:38;;;;;;;11.35;10.23;;;21.10;99.90;;;;;;4953779;28;20054;-53
2023/06/04 06:33:04;;;;;;;10.85;9.80;;;21.10;99.90;;;;;;4946823;28;20063;-56
2023/06/04 06:35:29;;;;;;;10.77;9.07;;;21.20;99.90;;;;;;4952093;29;20078;-55
2023/06/04 06:37:55;;;;;;;11.48;10.27;;;21.30;99.90;;;;;;4954608;28;20053;-57
2023/06/04 06:40:21;;;;;;;9.07;8.07;;;21.30;99.90;;;;;;4951106;28;20024;-57
2023/06/04 06:42:52;;;;;;;11.82;9.23;;;21.40;99.90;;;;;;4954901;28;20023;-58
2023/06/04 06:45:19;;;;;;;9.57;8.68;;;21.50;99.90;;;;;;4954474;28;20030;-51
2023/06/04 06:47:45;;;;;;;12.05;10.02;;;21.60;99.90;;;;;;4952328;29;20024;-56
2023/06/04 06:50:11;;;;;;;8.88;8.02;;;21.80;99.90;;;;;;4953911;28;20038;-59
2023/06/04 06:52:38;;;;;;;11.43;8.63;;;21.90;98.90;;;;;;4954512;28;20478;-56
2023/06/04 06:55:04;;;;;;;9.20;8.15;;;22.00;98.00;;;;;;4953083;29;20444;-57
2023/06/04 06:57:30;;;;;;;10.40;8.68;;;22.10;98.20;;;;;;4953039;29;20117;-55
2023/06/04 06:59:56;;;;;;;11.93;8.63;;;22.20;97.90;;;;;;4950356;28;20111;-58
2023/06/04 07:02:22;;;;;;;8.73;7.67;;;22.30;98.20;;;;;;4953493;28;20506;-55
2023/06/04 07:04:48;;;;;;;8.93;7.40;;;22.40;97.90;;;;;;4954264;28;20118;-59
2023/06/04 07:07:14;;;;;;;10.20;7.30;;;22.50;96.30;;;;;;4953958;28;20086;-58
2023/06/04 07:09:40;;;;;;;7.83;6.67;;;22.50;95.50;;;;;;4952823;28;20023;-60
2023/06/04 07:12:06;;;;;;;8.43;7.63;;;22.50;95.30;;;;;;4945853;28;20166;-58
2023/06/04 07:14:32;;;;;;;10.23;7.20;;;22.60;95.60;;;;;;4951978;28;20503;-58
2023/06/04 07:16:58;;;;;;;8.13;7.30;;;22.60;95.80;;;;;;4954635;28;20035;-57
2023/06/04 07:19:23;;;;;;;8.10;7.30;;;22.70;95.30;;;;;;4956880;28;20052;-59
2023/06/04 07:21:50;;;;;;;9.55;6.85;;;22.80;95.10;;;;;;4954638;28;20499;-60
2023/06/04 07:24:16;;;;;;;10.57;7.50;;;22.90;94.90;;;;;;4948533;28;20032;-58
2023/06/04 07:26:42;;;;;;;7.77;6.97;;;23.10;93.70;;;;;;4949546;29;20023;-58
2023/06/04 07:29:08;;;;;;;7.73;6.93;;;23.20;93.00;;;;;;4953772;28;20059;-61
2023/06/04 07:31:33;;;;;;;10.20;7.17;;;23.30;93.00;;;;;;4952535;29;20027;-59
2023/06/04 07:33:59;;;;;;;9.37;7.63;;;23.40;93.10;;;;;;4953848;28;20039;-59
2023/06/04 07:36:25;;;;;;;9.80;7.43;;;23.50;92.80;;;;;;4952504;29;20074;-57
2023/06/04 07:38:51;;;;;;;9.53;8.27;;;23.60;92.40;;;;;;4953842;28;20031;-58
2023/06/04 07:41:17;;;;;;;8.33;7.50;;;23.70;91.30;;;;;;4954061;28;20063;-57
2023/06/04 07:43:43;;;;;;;8.97;7.73;;;23.80;90.90;;;;;;4952786;29;20114;-58
2023/06/04 07:46:10;;;;;;;8.98;7.50;;;24.00;91.20;;;;;;4951228;28;20035;-60
2023/06/04 07:48:35;;;;;;;9.85;7.90;;;24.10;90.50;;;;;;4952784;28;20047;-58
2023/06/04 07:51:04;;;;;;;10.23;8.10;;;24.20;89.00;;;;;;4952664;29;20039;-59
2023/06/04 07:53:30;;;;;;;9.20;8.30;;;24.20;88.10;;;;;;4953680;28;20038;-59
2023/06/04 07:55:57;;;;;;;10.52;9.15;;;24.30;87.80;;;;;;4951987;29;20126;-60
2023/06/04 07:58:23;;;;;;;12.20;8.80;;;24.40;85.40;;;;;;4952224;29;20039;-57
2023/06/04 08:00:49;;;;;;;9.63;8.60;;;24.40;84.70;;;;;;4953239;28;20494;-58
2023/06/04 08:03:15;;;;;;;10.35;8.10;;;24.40;84.90;;;;;;4951717;28;20089;-61
2023/06/04 08:05:41;;;;;;;10.83;7.83;;;24.50;85.70;;;;;;4953179;28;20024;-60
2023/06/04 08:08:07;;;;;;;9.88;8.70;;;24.70;85.80;;;;;;4941412;28;20046;-58
2023/06/04 08:10:33;;;;;;;9.70;8.73;;;24.70;84.70;;;;;;4936308;29;20027;-58
2023/06/04 08:12:58;;;;;;;9.87;8.37;;;24.90;83.40;;;;;;4952191;29;20518;-60
2023/06/04 08:15:24;;;;;;;11.80;9.43;;;24.90;82.20;;;;;;4953637;28;20031;-57
2023/06/04 08:17:50;;;;;;;10.37;8.37;;;24.90;80.90;;;;;;4951717;28;20051;-58
2023/06/04 08:20:16;;;;;;;10.63;9.43;;;24.90;81.60;;;;;;4952308;28;20527;-59
2023/06/04 08:22:42;;;;;;;10.97;9.20;;;24.90;81.30;;;;;;4941568;29;20106;-58
2023/06/04 08:25:08;;;;;;;10.57;9.57;;;24.90;83.10;;;;;;4952607;28;20044;-57
2023/06/04 08:27:34;;;;;;;12.32;9.95;;;25.00;82.90;;;;;;4952831;28;20048;-60
2023/06/04 08:30:01;;;;;;;10.75;9.35;;;25.20;81.40;;;;;;4951360;28;20063;-58
2023/06/04 08:32:27;;;;;;;10.60;9.07;;;25.20;78.50;;;;;;4949385;28;20067;-59
2023/06/04 08:34:54;;;;;;;11.70;10.50;;;25.20;79.90;;;;;;4952376;28;20027;-59
2023/06/04 08:37:20;;;;;;;11.15;9.85;;;25.20;79.30;;;;;;4952233;28;20031;-58
2023/06/04 08:39:46;;;;;;;11.60;10.43;;;25.30;79.20;;;;;;4951547;28;20110;-58
2023/06/04 08:42:41;;;;;;;12.10;10.73;;;25.30;79.60;;;;;;4953029;28;20710;-58
2023/06/04 08:45:13;;;;;;;13.13;10.38;;;25.30;78.10;;;;;;4950854;29;20043;-58
2023/06/04 08:47:49;;;;;;;11.13;9.55;;;25.40;79.90;;;;;;4953223;28;20641;-60
2023/06/04 08:50:19;;;;;;;12.80;10.45;;;25.50;77.00;;;;;;4972881;23;20081;-52
2023/06/04 08:52:45;;;;;;;13.02;10.63;;;25.60;78.70;;;;;;4953325;28;20050;-48
2023/06/04 08:55:12;;;;;;;;;;;25.80;77.30;;;;;;4953742;28;20043;-51
2023/06/04 08:57:39;;;;;;;11.48;9.55;;;25.90;75.70;;;;;;4953213;28;19910;-53
2023/06/04 09:00:07;;;;;;;10.18;9.18;;;26.00;75.70;;;;;;4968115;28;20061;-51
2023/06/04 09:02:40;;;;;;;11.63;8.85;;;25.90;74.00;;;;;;4953434;28;20107;-51
2023/06/04 09:05:10;;;;;;;10.48;9.38;;;26.00;75.90;;;;;;4952017;28;20036;-50
2023/06/04 09:07:40;;;;;;;11.48;10.27;;;26.10;74.40;;;;;;4953067;28;20035;-50
2023/06/04 09:10:12;;;;;;;11.85;9.93;;;26.20;72.80;;;;;;4967906;28;20039;-49
2023/06/04 09:12:42;;;;;;;11.45;9.48;;;26.20;74.00;;;;;;4953403;28;20035;-52
2023/06/04 09:15:08;;;;;;;11.07;9.98;;;26.10;75.00;;;;;;4971662;28;20125;-49
2023/06/04 09:17:34;;;;;;;11.85;10.07;;;26.10;75.10;;;;;;4956730;28;20031;-51
2023/06/04 09:20:00;;;;;;;12.20;10.02;;;26.10;73.80;;;;;;4955432;28;20603;-48
2023/06/04 09:22:36;;;;;;;15.23;10.63;;;25.90;74.30;;;;;;4956813;28;20031;-48
2023/06/04 09:25:09;;;;;;;11.07;9.80;;;25.80;73.00;;;;;;4956717;28;20400;-49
2023/06/04 09:27:42;;;;;;;11.13;10.00;;;25.70;74.40;;;;;;4956504;28;20031;-49
2023/06/04 09:30:09;;;;;;;11.52;10.23;;;25.80;74.60;;;;;;4956637;28;20031;-51
2023/06/04 09:32:34;;;;;;;;;;;25.80;74.50;;;;;;4955771;28;20484;-49
2023/06/04 09:35:15;;;;;;;12.10;9.57;;;25.80;72.60;;;;;;4956441;28;19981;-52
2023/06/04 09:37:42;;;;;;;13.55;9.75;;;25.60;73.20;;;;;;4956269;28;20496;-49
2023/06/04 09:40:09;;;;;;;12.68;10.15;;;25.50;74.30;;;;;;4956397;28;20031;-49
2023/06/04 09:42:45;;;;;;;12.40;10.00;;;25.50;74.80;;;;;;4956408;28;20118;-52
2023/06/04 09:45:11;;;;;;;10.48;9.07;;;25.60;73.40;;;;;;4956419;28;20508;-49
2023/06/04 09:47:42;;;;;;;9.15;8.13;;;25.50;75.30;;;;;;4956130;28;20063;-48
2023/06/04 09:50:09;;;;;;;10.57;9.07;;;25.50;72.60;;;;;;4971018;28;20389;-51
2023/06/04 09:52:35;;;;;;;9.55;8.60;;;25.50;73.00;;;;;;4956310;28;20063;-50
2023/06/04 09:55:01;;;;;;;12.85;9.82;;;25.60;74.80;;;;;;4954871;28;20053;-48
2023/06/04 09:57:29;;;;;;;12.77;9.60;;;25.70;72.50;;;;;;4971010;28;20031;-51
2023/06/04 09:59:56;;;;;;;12.02;8.25;;;25.80;72.50;;;;;;4970873;28;20082;-51
2023/06/04 10:02:22;;;;;;;10.52;8.50;;;25.80;72.30;;;;;;4954799;28;20027;-51
2023/06/04 10:04:59;;;;;;;14.52;10.45;;;26.00;72.00;;;;;;4956011;28;20316;-49
2023/06/04 10:07:26;;;;;;;12.93;10.23;;;26.10;70.00;;;;;;4954604;28;20122;-50
2023/06/04 10:09:55;;;;;;;10.82;9.73;;;26.10;72.00;;;;;;4970825;28;20074;-48
2023/06/04 10:12:28;;;;;;;12.57;9.10;;;26.30;71.80;;;;;;4955752;28;20036;-48
2023/06/04 10:15:13;;;;;;;13.30;10.75;;;26.40;71.00;;;;;;4970690;28;20039;-48
2023/06/04 10:17:40;;;;;;;13.15;10.55;;;26.60;71.10;;;;;;4955705;28;20031;-49
2023/06/04 10:20:11;;;;;;;12.48;9.27;;;26.50;69.50;;;;;;4955897;28;20054;-49
2023/06/04 10:22:38;;;;;;;12.93;9.55;;;26.50;68.60;;;;;;4970628;28;20170;-48
2023/06/04 10:25:04;;;;;;;8.48;7.00;;;26.50;69.40;;;;;;4954961;28;20106;-48
2023/06/04 10:27:31;;;;;;;9.43;6.20;;;26.60;68.90;;;;;;4955472;28;20035;-48
2023/06/04 10:29:58;;;;;;;7.97;7.18;;;26.80;68.20;;;;;;4955418;28;20038;-50
2023/06/04 10:32:27;;;;;;;9.63;7.68;;;27.10;67.90;;;;;;4955556;28;20038;-48
2023/06/04 10:34:54;;;;;;;8.05;7.25;;;27.20;67.50;;;;;;4954144;28;20531;-48
2023/06/04 10:37:21;;;;;;;8.77;7.97;;;27.30;66.30;;;;;;4954015;28;20029;-48
2023/06/04 10:39:55;;;;;;;9.45;8.55;;;27.30;68.00;;;;;;4954007;28;20033;-50
2023/06/04 10:42:22;;;;;;;12.15;7.65;;;27.50;66.10;;;;;;4955376;28;20094;-48
2023/06/04 10:44:49;;;;;;;8.32;6.68;;;27.70;67.20;;;;;;4954785;28;20015;-48
2023/06/04 10:47:24;;;;;;;7.65;6.57;;;27.80;65.30;;;;;;4954382;28;20023;-49
2023/06/04 10:49:51;;;;;;;8.07;6.55;;;28.00;65.50;;;;;;4954425;28;20034;-49
2023/06/04 10:52:18;;;;;;;7.18;6.47;;;28.10;64.20;;;;;;4953888;28;20028;-49
2023/06/04 10:54:46;;;;;;;7.28;6.57;;;28.30;65.80;;;;;;4954623;28;20491;-51
2023/06/04 10:57:16;;;;;;;8.93;6.72;;;28.40;62.30;;;;;;4954227;28;20046;-48
2023/06/04 10:59:57;;;;;;;8.50;7.60;;;28.30;63.10;;;;;;4952421;28;20023;-49
2023/06/04 11:02:23;;;;;;;9.23;8.35;;;28.40;64.60;;;;;;4954401;28;20102;-48
2023/06/04 11:05:05;;;;;;;9.15;8.27;;;28.50;63.70;;;;;;4954148;28;20035;-49
2023/06/04 11:07:44;;;;;;;9.55;8.30;;;28.50;64.00;;;;;;4954251;28;20571;-48
2023/06/04 11:10:12;;;;;;;9.50;8.25;;;28.40;61.60;;;;;;4952236;29;20035;-51
2023/06/04 11:12:51;;;;;;;9.13;7.43;;;28.30;61.80;;;;;;4952667;28;20308;-48
2023/06/04 11:15:17;;;;;;;9.45;8.55;;;28.30;62.20;;;;;;4952362;29;20514;-48
2023/06/04 11:17:54;;;;;;;11.90;8.93;;;28.30;62.40;;;;;;4950123;29;20114;-48
2023/06/04 11:20:21;;;;;;;11.88;9.27;;;28.30;61.80;;;;;;4953865;29;20019;-48
2023/06/04 11:22:58;;;;;;;11.77;8.00;;;28.30;62.40;;;;;;4946618;28;20015;-48
2023/06/04 11:25:24;;;;;;;9.17;8.30;;;28.60;62.40;;;;;;4952325;29;20042;-48
2023/06/04 11:27:52;;;;;;;9.77;7.18;;;28.70;61.50;;;;;;4941469;29;20480;-53
2023/06/04 11:30:19;;;;;;;7.63;6.63;;;28.80;61.60;;;;;;4953950;28;20027;-50
2023/06/04 11:32:46;;;;;;;7.78;6.97;;;28.90;60.80;;;;;;4954208;28;20047;-48
2023/06/04 11:35:12;;;;;;;8.63;7.72;;;28.90;58.60;;;;;;4954022;28;20023;-48
2023/06/04 11:37:38;;;;;;;10.70;8.13;;;28.80;59.60;;;;;;4953126;28;20432;-51
2023/06/04 11:40:18;;;;;;;8.32;7.38;;;28.90;60.00;;;;;;4951931;29;20019;-49
2023/06/04 11:42:46;;;;;;;9.40;7.68;;;29.20;59.40;;;;;;4952633;28;20633;-48
2023/06/04 11:45:17;;;;;;;10.75;8.52;;;29.40;60.10;;;;;;4952283;28;20437;-49
2023/06/04 11:48:03;;;;;;;7.72;6.93;;;29.50;58.80;;;;;;4952363;28;20035;-48
2023/06/04 11:50:30;;;;;;;11.27;7.93;;;29.40;60.60;;;;;;4953484;28;20400;-48
2023/06/04 11:52:56;;;;;;;10.73;8.23;;;29.20;59.40;;;;;;4952513;28;20595;-48
2023/06/04 11:55:22;;;;;;;8.65;7.85;;;29.10;58.80;;;;;;4953274;28;20110;-51
2023/06/04 11:57:51;;;;;;;11.07;8.05;;;29.30;60.10;;;;;;4953546;28;20031;-49
2023/06/04 12:00:19;;;;;;;8.50;6.30;;;29.40;58.30;;;;;;4949184;28;20065;-50
2023/06/04 12:28:31;;;;;;;8.35;7.45;;;30.60;56.10;;;;;;5110920;27;20413;-48
2023/06/04 12:30:57;;;;;;;8.32;7.50;;;31.10;54.30;;;;;;5108805;28;20028;-48
2023/06/04 12:33:23;;;;;;;8.37;7.47;;;30.60;54.80;;;;;;5107581;28;20066;-48
2023/06/04 12:35:49;;;;;;;10.33;7.90;;;30.30;55.50;;;;;;5108821;28;20294;-48
2023/06/04 12:38:14;;;;;;;8.23;7.13;;;30.10;55.90;;;;;;5108413;28;20268;-48
2023/06/04 12:40:40;;;;;;;8.23;7.10;;;30.00;55.90;;;;;;5141863;22;20795;-58
2023/06/04 12:43:06;;;;;;;7.90;7.10;;;29.90;57.20;;;;;;5088215;28;20059;-58
2023/06/04 12:45:32;;;;;;;8.70;7.47;;;29.90;58.30;;;;;;5088104;28;20034;-58
2023/06/04 12:47:58;;;;;;;7.27;6.50;;;29.90;57.80;;;;;;5088131;28;20464;-58
2023/06/04 12:50:24;;;;;;;6.78;6.07;;;30.10;57.20;;;;;;5068229;28;20028;-58
2023/06/04 12:52:50;;;;;;;7.93;7.05;;;30.20;56.20;;;;;;5088137;28;20024;-58
2023/06/04 12:55:16;;;;;;;6.97;6.28;;;30.30;56.10;;;;;;5069271;28;20020;-59
2023/06/04 12:57:44;;;;;;;8.17;7.00;;;30.50;56.50;;;;;;5087010;28;20067;-59
2023/06/04 13:00:10;;;;;;;8.77;7.22;;;30.80;56.50;;;;;;5068203;28;20258;-58
2023/06/04 13:02:36;;;;;;;8.07;7.28;;;30.70;55.40;;;;;;5069037;28;20059;-58
2023/06/04 13:05:02;;;;;;;8.37;6.67;;;30.80;56.20;;;;;;5077807;28;20495;-59